Terminal Aerodrome Forecast
Issued by NWS

Home | Current Version | Previous Version | Graphics & Text | Print | Product List | Glossary On
Versions: 1 2 3 4 5 6 7 8 9 10 11 12 13 14 15 16 17 18 19 20 21 22 23 24 25 26 27 28 29
000
FTUS43 KLOT 111504 AAA
TAFMDW
TAF AMD
KMDW 111504Z 1115/1218 19010KT P6SM BKN070 OVC150
     FM111700 19008KT P6SM -SNRA BKN050 BKN100
     FM111900 12003KT P6SM SCT050 BKN120
     FM112200 08004KT P6SM SCT020 OVC040
     FM120000 34014G19KT P6SM -SHSN OVC020
      TEMPO 1201/1203 5SM -SHSN OVC015
     FM120300 33018G30KT P6SM BKN030
     FM121300 32013G23KT P6SM SCT035=

USA.gov is the U.S. government's official web portal to all federal, state and local government web resources and services.